Terminal Aerodrome Forecast
Issued by NWS El Paso, TX

Home | Current Version | Previous Version | Text Only | Print | Product List | Glossary On
Versions: 1 2 3 4 5 6 7 8 9 10 11 12 13 14 15 16
000
FTUS44 KEPZ 232300 RRA
TAFELP
TAF
KELP 232344Z 2400/2424 13010G15KT P6SM FEW080
     FM240300 10009KT P6SM FEW100
     FM241000 06006KT P6SM SKC
     FM241800 14009KT P6SM FEW110=

USA.gov is the U.S. government's official web portal to all federal, state and local government web resources and services.